Upstream stations:
Downstream station:
SHEF ID: WCOM7 Spring R A - Waco MO
STATION TYPE: Stream Gauge
Regulating: Stage = 19.00, Flow = 17743
PRECIP STAGE RIV-FLOW BAT-LOAD
in ft cfs volt
Ccp-Rev Ccp-Rev Ccp-Rev Ccp-Rev
(US/Central)
03/28 00:00 0.00 3.47 1172 12.83
03/28 01:00 0.00 3.49 1186 12.77
03/28 02:00 0.00 3.48 1179 12.77
03/28 03:00 0.00 3.46 1165 12.71
03/28 04:00 0.00 3.44 1150 12.71
03/28 05:00 0.00 3.42 1136 12.71
03/28 06:00 0.00 3.42 1136 12.65
03/28 07:00 0.00 3.37 1101 12.65
03/28 08:00 0.00 3.39 1115 12.65
03/28 09:00 0.00 3.41 1129 12.83
03/28 10:00 0.00 3.39 1115 13.30
03/28 11:00 0.00 3.39 1115 14.30
03/28 12:00 0.00 3.36 1094 14.12
03/28 13:00 0.00 3.36 1094 14.18
03/28 14:00 0.00 3.37 1101 14.18
03/28 15:00 0.00 3.34 1080 14.12
03/28 16:00 0.00 3.31 1059 14.00
03/28 17:00 0.00 3.33 1073 13.94
03/28 18:00 0.00 3.31 1059 13.94
03/28 19:00 0.00 3.29 1046 13.71
03/28 20:00 0.00 3.28 1039 13.36
03/28 21:00 0.00 3.30 1053 13.07
03/28 22:00 0.00 3.28 1039 12.89
03/28 23:00 0.00 3.27 1032 12.83